createdAt,value
2022-07-30T02:51:51.066Z,96152.66
2022-07-30T02:52:57.130Z,96149.09
2022-07-30T02:54:00.511Z,96159.53
2022-07-30T02:55:06.139Z,96157.75
2022-07-30T02:56:10.952Z,96155.16
2022-07-30T02:57:19.772Z,96155.16
2022-07-30T02:58:25.691Z,96156.19
2022-07-30T02:59:33.326Z,96161.19
2022-07-30T03:00:36.164Z,96166.44
2022-07-30T03:01:41.591Z,96154.31
2022-07-30T03:02:44.913Z,96160.50
2022-07-30T03:03:50.895Z,96155.88
2022-07-30T03:04:58.218Z,96158.72
2022-07-30T03:06:05.429Z,96158.81
2022-07-30T03:07:09.158Z,96152.97
2022-07-30T03:08:14.517Z,96155.47
2022-07-30T03:09:22.413Z,96157.44
2022-07-30T03:10:28.682Z,96154.13
2022-07-30T03:11:32.064Z,96155.88
2022-07-30T03:12:37.994Z,96155.25
2022-07-30T03:13:40.300Z,96164.25
2022-07-30T03:14:45.103Z,96158.28
2022-07-30T03:15:49.889Z,96155.88
2022-07-30T03:16:59.124Z,96164.63
2022-07-30T03:18:02.969Z,96167.44
2022-07-30T03:19:11.628Z,96169.13
2022-07-30T03:20:19.340Z,96167.66
2022-07-30T03:21:28.535Z,96169.19
2022-07-30T03:22:33.222Z,96169.47
2022-07-30T03:23:39.466Z,96176.69
2022-07-30T03:24:45.115Z,96173.44
2022-07-30T03:25:55.089Z,96175.84
2022-07-30T03:27:00.104Z,96180.53
2022-07-30T03:28:06.685Z,96183.34
2022-07-30T03:29:10.420Z,96185.03
2022-07-30T03:30:16.145Z,96186.38
2022-07-30T03:31:19.117Z,96185.81
2022-07-30T03:32:26.140Z,96184.38
2022-07-30T03:33:38.240Z,96177.03
2022-07-30T03:34:45.393Z,96186.28
2022-07-30T03:35:52.471Z,96184.78
2022-07-30T03:36:57.894Z,96180.31
2022-07-30T03:38:03.204Z,96184.63
2022-07-30T03:39:07.267Z,96194.94
2022-07-30T03:40:12.806Z,96187.22
2022-07-30T03:41:15.873Z,96190.75
2022-07-30T03:42:20.693Z,96187.94
2022-07-30T03:43:33.010Z,96191.44
2022-07-30T03:44:38.947Z,96188.91
2022-07-30T03:45:47.060Z,96201.44
2022-07-30T03:46:51.054Z,96192.59
2022-07-30T03:47:57.586Z,96201.34
2022-07-30T03:49:00.711Z,96195.72
2022-07-30T03:50:06.267Z,96194.78
2022-07-30T03:51:11.475Z,96203.34
2022-07-30T03:52:16.693Z,96200.22
2022-07-30T03:53:20.785Z,96202.28
2022-07-30T03:54:26.454Z,96203.84
2022-07-30T03:55:29.002Z,96203.53
2022-07-30T03:56:34.057Z,96212.31
2022-07-30T03:57:36.819Z,96203.25
2022-07-30T03:58:41.698Z,96206.59
2022-07-30T03:59:44.350Z,96211.72
2022-07-30T04:00:51.201Z,96209.75
2022-07-30T04:01:53.326Z,96209.09
2022-07-30T04:02:58.640Z,96201.69
2022-07-30T04:04:08.444Z,96217.72
2022-07-30T04:05:14.816Z,96213.63
2022-07-30T04:06:19.540Z,96206.88
2022-07-30T04:07:24.213Z,96214.56
2022-07-30T04:08:27.528Z,96211.41
2022-07-30T04:09:32.097Z,96214.13
2022-07-30T04:10:34.312Z,96220.81
2022-07-30T04:11:41.012Z,96221.28
2022-07-30T04:12:43.943Z,96220.53
2022-07-30T04:13:48.557Z,96215.88
2022-07-30T04:14:50.669Z,96227.69
2022-07-30T04:16:37.978Z,96222.50
2022-07-30T04:17:29.415Z,96226.44
2022-07-30T04:18:40.321Z,96234.78
2022-07-30T04:19:46.940Z,96227.16
2022-07-30T04:20:54.187Z,96234.06
2022-07-30T04:22:00.607Z,96232.59
2022-07-30T04:23:05.818Z,96238.53
2022-07-30T04:24:09.122Z,96238.34
2022-07-30T04:25:18.462Z,96238.25
2022-07-30T04:26:26.634Z,96238.97
2022-07-30T04:27:32.137Z,96240.75
2022-07-30T04:28:35.145Z,96242.34
2022-07-30T04:29:40.115Z,96234.31
2022-07-30T04:30:42.304Z,96244.19
2022-07-30T04:31:47.339Z,96237.31
2022-07-30T04:32:50.760Z,96238.47
2022-07-30T04:33:55.426Z,96245.97
2022-07-30T04:35:02.906Z,96239.28
2022-07-30T04:36:11.163Z,96248.03
2022-07-30T04:37:23.148Z,96252.22
2022-07-30T04:38:25.704Z,96250.66
2022-07-30T04:39:30.814Z,96248.97
2022-07-30T04:40:33.027Z,96246.16
2022-07-30T04:41:48.267Z,96248.56
2022-07-30T04:42:51.485Z,96242.44
2022-07-30T04:43:56.501Z,96251.81
2022-07-30T04:44:59.347Z,96257.91
2022-07-30T04:46:04.149Z,96255.38
2022-07-30T04:47:06.749Z,96254.63
2022-07-30T04:48:12.252Z,96256.41
